Time;durP1;ratioP1;P1;durP2;ratioP2;P2;SDS_P1;SDS_P2;PMS_P1;PMS_P2;Temp;Humidity;BMP_temperature;BMP_pressure;BME280_temperature;BME280_humidity;BME280_pressure;Samples;Min_cycle;Max_cycle;Signal;HPM_P1;HPM_P2
2021/07/29 00:02:04;;;;;;;;;5.67;5.67;;;;;26.03;55.31;98144.25;4890543;28;103408;-92
2021/07/29 00:04:32;;;;;;;;;5.33;4.67;;;;;26.03;55.33;98145.06;4887503;28;103179;-92
2021/07/29 00:06:59;;;;;;;;;6.67;6.00;;;;;26.02;55.44;98143.44;4877108;28;103062;-92
2021/07/29 00:09:26;;;;;;;;;4.50;4.50;;;;;26.03;55.50;98149.78;4877028;28;101901;-91
2021/07/29 00:11:58;;;;;;;;;5.33;4.67;;;;;26.02;55.43;98151.75;4915793;28;103375;-86
2021/07/29 00:14:31;;;;;;;;;5.00;5.00;;;;;26.02;55.40;98151.75;4848176;28;101873;-92
2021/07/29 00:17:16;;;;;;;;;5.00;4.67;;;;;26.01;55.56;98149.28;4901030;28;103629;-92
2021/07/29 00:19:47;;;;;;;;;5.00;5.00;;;;;25.99;55.53;98146.00;4914667;28;102057;-92
2021/07/29 00:22:17;;;;;;;;;6.00;6.00;;;;;26.00;55.51;98155.97;4905084;28;103536;-92
2021/07/29 00:24:49;;;;;;;;;5.00;5.00;;;;;25.99;55.66;98152.38;4899406;28;103618;-91
2021/07/29 00:27:22;;;;;;;;;5.33;5.00;;;;;25.99;55.11;98157.09;4908711;28;102051;-92
2021/07/29 00:30:00;;;;;;;;;4.00;4.00;;;;;25.98;55.44;98161.00;4898559;28;104787;-92
2021/07/29 00:32:32;;;;;;;;;5.33;5.00;;;;;25.99;55.33;98159.84;4843423;28;107099;-92
2021/07/29 00:35:14;;;;;;;;;4.67;4.67;;;;;25.98;55.69;98161.00;4880064;28;101898;-92
2021/07/29 00:37:49;;;;;;;;;4.00;4.00;;;;;25.99;55.33;98170.94;4895572;28;101810;-92
2021/07/29 00:40:20;;;;;;;;;5.67;4.67;;;;;25.98;55.52;98172.09;4897012;28;104359;-92
2021/07/29 00:42:52;;;;;;;;;5.00;5.00;;;;;25.98;55.35;98172.88;4907784;28;107034;-92
2021/07/29 00:45:27;;;;;;;;;4.33;4.33;;;;;25.97;55.57;98179.59;4903338;28;103904;-92
2021/07/29 00:47:58;;;;;;;;;4.67;4.67;;;;;25.98;55.45;98191.50;4900002;28;102047;-92
2021/07/29 00:50:35;;;;;;;;;4.00;4.00;;;;;25.96;55.62;98189.03;4907556;28;101908;-92
2021/07/29 00:53:05;;;;;;;;;4.00;4.00;;;;;25.98;55.54;98191.50;4900605;28;103593;-92
2021/07/29 00:55:32;;;;;;;;;5.00;5.00;;;;;25.96;55.13;98185.44;4897447;28;102293;-91
2021/07/29 00:57:59;;;;;;;;;5.00;5.00;;;;;25.96;55.65;98185.44;4912807;28;101961;-92
2021/07/29 01:00:26;;;;;;;;;4.33;4.33;;;;;25.95;55.40;98178.25;4891750;28;103544;-92
2021/07/29 01:02:54;;;;;;;;;5.00;4.00;;;;;25.93;55.46;98178.56;4840339;28;108012;-92
2021/07/29 01:05:22;;;;;;;;;4.67;4.67;;;;;25.94;55.64;98176.59;4869449;28;102481;-92
2021/07/29 01:07:52;;;;;;;;;4.33;3.33;;;;;25.93;55.38;98181.34;4874467;28;104171;-92
2021/07/29 01:10:19;;;;;;;;;5.00;4.00;;;;;25.92;55.62;98178.88;4890531;28;102227;-92
2021/07/29 01:12:49;;;;;;;;;6.00;6.00;;;;;25.94;55.75;98184.91;4907406;28;104249;-92
2021/07/29 01:15:23;;;;;;;;;5.00;5.00;;;;;25.93;55.57;98181.34;4900722;28;103829;-90
2021/07/29 01:18:02;;;;;;;;;4.00;3.33;;;;;25.93;55.48;98173.03;4896451;28;103475;-92
2021/07/29 01:20:52;;;;;;;;;6.33;6.00;;;;;25.93;55.39;98180.50;4903471;28;101838;-92
2021/07/29 01:23:22;;;;;;;;;4.00;4.00;;;;;25.92;55.54;98173.31;4890024;28;103480;-92
2021/07/29 01:25:59;;;;;;;;;5.00;5.00;;;;;25.93;55.17;98172.22;4894719;28;101758;-92
2021/07/29 01:28:32;;;;;;;;;5.33;4.67;;;;;25.91;55.15;98172.50;4890513;28;102647;-91
2021/07/29 01:31:06;;;;;;;;;4.67;4.67;;;;;25.91;55.90;98178.03;4904875;28;102238;-92
2021/07/29 01:33:44;;;;;;;;;5.33;4.33;;;;;25.90;54.99;98175.56;4908417;28;102776;-92
2021/07/29 01:36:18;;;;;;;;;4.00;4.00;;;;;25.91;55.23;98177.22;4885048;28;102083;-92
2021/07/29 01:38:58;;;;;;;;;4.33;4.33;;;;;25.91;55.26;98171.69;4913154;28;105429;-92
2021/07/29 01:41:32;;;;;;;;;3.33;3.33;;;;;25.89;55.31;98166.47;4890710;28;103078;-85
2021/07/29 01:44:08;;;;;;;;;5.67;5.67;;;;;25.89;55.14;98174.78;4847951;28;103877;-91
2021/07/29 01:46:41;;;;;;;;;5.67;5.33;;;;;25.90;55.26;98181.13;4904076;28;104958;-92
2021/07/29 01:49:21;;;;;;;;;5.33;5.33;;;;;25.88;55.24;98181.44;4906566;28;101854;-92
2021/07/29 01:51:57;;;;;;;;;4.00;4.00;;;;;25.88;55.30;98178.69;4900160;28;102670;-92
2021/07/29 01:54:28;;;;;;;;;5.00;5.00;;;;;25.87;55.06;98187.28;4913909;28;107811;-92
2021/07/29 01:56:55;;;;;;;;;4.00;4.00;;;;;25.86;55.13;98182.88;4900757;28;102094;-92
2021/07/29 01:59:22;;;;;;;;;6.67;5.00;;;;;25.85;55.19;98176.50;4903321;28;101984;-92
2021/07/29 02:01:49;;;;;;;;;3.00;3.00;;;;;25.85;55.22;98181.25;4912137;28;105121;-92
2021/07/29 02:04:18;;;;;;;;;6.00;5.33;;;;;25.85;55.22;98173.75;4910185;28;103424;-92
2021/07/29 02:06:45;;;;;;;;;5.00;5.00;;;;;25.83;55.12;98172.41;4872445;28;101678;-92
2021/07/29 02:09:12;;;;;;;;;5.33;5.00;;;;;25.81;55.09;98172.72;4915719;28;102013;-92
2021/07/29 02:11:40;;;;;;;;;4.67;4.67;;;;;25.81;55.08;98172.72;4906877;28;103152;-92
2021/07/29 02:14:07;;;;;;;;;5.33;5.33;;;;;25.80;55.22;98165.56;4905264;28;104135;-92
2021/07/29 02:16:34;;;;;;;;;6.67;6.00;;;;;25.79;55.28;98157.56;4921350;28;102101;-91
2021/07/29 02:19:02;;;;;;;;;4.67;4.00;;;;;25.78;55.20;98162.28;4900049;28;101750;-92
2021/07/29 02:21:29;;;;;;;;;5.00;5.00;;;;;25.78;55.31;98162.28;4919895;28;102128;-92
2021/07/29 02:23:56;;;;;;;;;6.67;5.67;;;;;25.79;55.25;98152.84;4918568;28;108439;-92
2021/07/29 02:26:23;;;;;;;;;5.33;5.33;;;;;25.80;55.29;98156.44;4896544;28;102037;-91
2021/07/29 02:28:50;;;;;;;;;5.00;4.33;;;;;25.80;55.22;98170.28;4915877;28;102153;-92
2021/07/29 02:31:17;;;;;;;;;5.00;5.00;;;;;25.79;55.16;98165.88;4924548;28;102952;-91
2021/07/29 02:33:44;;;;;;;;;5.00;5.00;;;;;25.77;55.07;98164.22;4911167;28;103653;-92
2021/07/29 02:36:13;;;;;;;;;5.67;5.67;;;;;25.76;55.30;98154.25;4900855;28;102319;-92
2021/07/29 02:38:40;;;;;;;;;6.00;6.00;;;;;25.76;55.24;98157.03;4919175;28;102054;-92
2021/07/29 02:41:08;;;;;;;;;5.00;4.33;;;;;25.75;55.15;98163.72;4907125;28;101698;-91
2021/07/29 02:43:35;;;;;;;;;3.33;3.33;;;;;25.72;55.08;98164.31;4907901;28;103446;-92
2021/07/29 02:46:02;;;;;;;;;6.00;5.00;;;;;25.73;55.13;98174.28;4892741;28;102587;-92
2021/07/29 02:48:30;;;;;;;;;4.00;3.67;;;;;25.71;55.31;98173.75;4902634;28;102014;-91
2021/07/29 02:50:57;;;;;;;;;6.00;5.67;;;;;25.74;55.35;98172.34;4909432;28;101879;-91
2021/07/29 02:53:25;;;;;;;;;5.00;5.00;;;;;25.74;55.43;98170.38;4894766;28;103636;-91
2021/07/29 02:55:57;;;;;;;;;4.67;4.67;;;;;25.75;55.51;98172.03;4904648;28;102385;-92
2021/07/29 02:58:24;;;;;;;;;5.33;5.00;;;;;25.73;55.34;98171.50;4909038;28;102466;-92
2021/07/29 03:00:54;;;;;;;;;6.67;6.00;;;;;25.74;55.25;98177.88;4911843;28;102185;-91
2021/07/29 03:03:22;;;;;;;;;5.00;5.00;;;;;25.72;55.18;98174.56;4901314;28;104267;-91
2021/07/29 03:05:49;;;;;;;;;6.00;6.00;;;;;25.70;55.30;98169.38;4921956;28;102642;-92
2021/07/29 03:08:16;;;;;;;;;5.00;5.00;;;;;25.71;55.38;98172.97;4906568;28;104237;-91
2021/07/29 03:10:47;;;;;;;;;4.67;4.67;;;;;25.71;55.25;98181.28;4900802;28;102094;-92
2021/07/29 03:13:14;;;;;;;;;5.00;5.00;;;;;25.70;55.21;98182.41;4903331;28;103512;-92
2021/07/29 03:15:41;;;;;;;;;5.33;5.33;;;;;25.70;55.31;98182.41;4904234;28;103054;-92
2021/07/29 03:18:08;;;;;;;;;5.67;5.33;;;;;25.70;55.41;98176.84;4904443;28;102084;-92
2021/07/29 03:20:36;;;;;;;;;3.33;3.33;;;;;25.69;55.51;98187.09;4928093;28;102231;-92
2021/07/29 03:23:03;;;;;;;;;4.00;4.00;;;;;25.68;55.33;98185.47;4895992;28;103434;-92
2021/07/29 03:25:31;;;;;;;;;5.67;4.67;;;;;25.68;55.14;98191.00;4912060;28;101942;-91
2021/07/29 03:27:58;;;;;;;;;6.00;6.00;;;;;25.67;55.08;98185.75;4915339;28;102252;-92
2021/07/29 03:30:25;;;;;;;;;7.67;6.33;;;;;25.67;55.14;98185.75;4907624;28;102508;-92
2021/07/29 03:32:52;;;;;;;;;5.33;5.00;;;;;25.67;54.97;98188.53;4916989;28;103409;-92
2021/07/29 03:35:19;;;;;;;;;6.00;6.00;;;;;25.66;54.88;98181.38;4919024;28;101743;-92
2021/07/29 03:37:47;;;;;;;;;4.00;4.00;;;;;25.66;54.87;98190.50;4914354;28;101728;-92
2021/07/29 03:40:14;;;;;;;;;5.00;4.00;;;;;25.67;55.00;98197.66;4914837;28;102159;-92
2021/07/29 03:42:41;;;;;;;;;5.67;5.00;;;;;25.66;54.96;98192.47;4911447;28;103351;-92
2021/07/29 03:45:09;;;;;;;;;5.33;5.33;;;;;25.67;55.16;98183.81;4903293;28;102139;-92
2021/07/29 03:47:36;;;;;;;;;4.33;4.00;;;;;25.67;55.10;98200.44;4915958;28;104061;-92
2021/07/29 03:50:04;;;;;;;;;4.33;4.00;;;;;25.67;54.81;98194.06;4910050;28;102265;-90
2021/07/29 03:52:31;;;;;;;;;4.67;4.67;;;;;25.68;54.92;98195.72;4917982;28;103578;-92
2021/07/29 03:54:58;;;;;;;;;4.00;4.00;;;;;25.67;54.85;98197.66;4912022;28;102019;-92
2021/07/29 03:57:25;;;;;;;;;5.33;4.33;;;;;25.64;54.99;98195.53;4898180;28;101820;-91
2021/07/29 03:59:53;;;;;;;;;5.00;5.00;;;;;25.66;54.64;98209.06;4912222;28;102999;-91
2021/07/29 04:02:20;;;;;;;;;5.00;5.00;;;;;25.66;54.86;98204.34;4904847;28;103443;-92
2021/07/29 04:04:48;;;;;;;;;5.67;5.33;;;;;25.66;54.83;98200.75;4910920;28;103621;-92
2021/07/29 04:07:15;;;;;;;;;5.00;5.00;;;;;25.65;54.98;98202.72;4918898;28;101938;-92
2021/07/29 04:09:42;;;;;;;;;1.67;1.67;;;;;25.64;54.75;98198.28;4928607;28;102069;-92
2021/07/29 04:12:09;;;;;;;;;5.67;4.67;;;;;25.65;54.84;98205.47;4902601;28;103907;-91
2021/07/29 04:14:36;;;;;;;;;5.33;4.33;;;;;25.66;54.84;98204.34;4909314;28;101795;-92
2021/07/29 04:17:04;;;;;;;;;7.33;4.00;;;;;25.65;55.02;98208.25;4917013;28;101935;-88
2021/07/29 04:19:32;;;;;;;;;4.33;4.33;;;;;25.65;54.84;98204.66;4910127;28;102195;-91
2021/07/29 04:22:00;;;;;;;;;3.33;3.33;;;;;25.64;54.81;98203.81;4912915;28;108978;-92
2021/07/29 04:24:28;;;;;;;;;4.33;4.33;;;;;25.63;54.68;98207.72;4922740;28;102318;-92
2021/07/29 04:26:59;;;;;;;;;5.00;4.33;;;;;25.63;54.96;98204.94;4908534;28;103294;-91
2021/07/29 04:29:27;;;;;;;;;6.00;4.33;;;;;25.61;54.79;98212.75;4925423;28;102138;-92
2021/07/29 04:31:54;;;;;;;;;6.00;5.33;;;;;25.62;54.90;98216.34;4916839;28;103453;-92
2021/07/29 04:34:21;;;;;;;;;5.00;5.00;;;;;25.61;55.08;98207.22;4908148;28;103162;-92
2021/07/29 04:36:48;;;;;;;;;5.00;5.00;;;;;25.60;54.62;98216.66;4915232;28;103432;-92
2021/07/29 04:39:15;;;;;;;;;4.33;4.33;;;;;25.61;54.63;98223.84;4920791;28;102245;-91
2021/07/29 04:41:43;;;;;;;;;5.00;5.00;;;;;25.61;54.61;98218.31;4909754;28;103363;-92
2021/07/29 04:44:11;;;;;;;;;5.00;4.00;;;;;25.60;54.66;98219.41;4920649;28;101629;-91
2021/07/29 04:46:39;;;;;;;;;4.67;4.67;;;;;25.60;54.69;98221.38;4915349;28;103506;-91
2021/07/29 04:49:08;;;;;;;;;4.67;4.00;;;;;25.60;54.71;98229.69;4914132;28;103056;-91
2021/07/29 04:51:35;;;;;;;;;4.00;3.67;;;;;25.62;54.62;98227.44;4923459;28;103609;-91
2021/07/29 04:54:03;;;;;;;;;5.00;4.00;;;;;25.58;54.45;98227.19;4893773;28;102280;-92
2021/07/29 04:56:31;;;;;;;;;5.33;4.00;;;;;25.60;54.64;98227.72;4899277;28;102056;-92
2021/07/29 04:58:58;;;;;;;;;4.00;4.00;;;;;25.62;54.37;98233.75;4896219;28;102213;-92
2021/07/29 05:01:25;;;;;;;;;5.00;4.00;;;;;25.59;54.53;98231.63;4900246;28;103369;-91
2021/07/29 05:03:52;;;;;;;;;5.00;4.00;;;;;25.61;54.49;98239.63;4910506;28;101990;-92
2021/07/29 05:06:19;;;;;;;;;6.67;6.00;;;;;25.59;54.47;98242.69;4930205;28;104224;-93
2021/07/29 05:08:47;;;;;;;;;4.00;4.00;;;;;25.58;54.76;98240.22;4912119;28;103141;-92
2021/07/29 05:11:14;;;;;;;;;3.67;3.67;;;;;25.59;54.40;98241.88;4913800;28;103435;-91
2021/07/29 05:13:41;;;;;;;;;3.67;3.67;;;;;25.58;54.65;98245.75;4917194;28;103246;-92
2021/07/29 05:16:08;;;;;;;;;4.33;4.33;;;;;25.55;54.89;98252.75;4903848;28;102060;-91
2021/07/29 05:18:36;;;;;;;;;5.33;4.00;;;;;25.53;54.34;98241.13;4912812;28;102762;-91
2021/07/29 05:21:04;;;;;;;;;5.00;5.00;;;;;25.55;54.65;98246.38;4930263;28;103416;-91
2021/07/29 05:23:31;;;;;;;;;5.67;4.67;;;;;25.52;54.63;98250.56;4907399;28;103068;-91
2021/07/29 05:25:58;;;;;;;;;6.00;4.33;;;;;25.52;54.56;98253.34;4905720;28;102237;-91
2021/07/29 05:28:25;;;;;;;;;4.00;3.33;;;;;25.53;54.38;98249.41;4909476;28;102098;-91
2021/07/29 05:30:53;;;;;;;;;4.00;3.00;;;;;25.51;54.15;98260.00;4887297;28;103352;-91
2021/07/29 05:33:20;;;;;;;;;4.33;4.33;;;;;25.52;54.39;98253.34;4909512;28;101913;-91
2021/07/29 05:35:47;;;;;;;;;4.00;3.00;;;;;25.52;54.09;98263.59;4911703;28;101752;-91
2021/07/29 05:38:14;;;;;;;;;5.00;5.00;;;;;25.51;54.43;98254.47;4903916;28;105848;-91
2021/07/29 05:40:41;;;;;;;;;4.33;3.33;;;;;25.53;54.12;98254.97;4917601;28;103461;-91
2021/07/29 05:43:08;;;;;;;;;3.67;3.67;;;;;25.51;54.04;98254.47;4917983;28;102551;-92
2021/07/29 05:45:35;;;;;;;;;5.00;5.00;;;;;25.51;53.74;98251.69;4899128;28;102167;-88
2021/07/29 05:48:03;;;;;;;;;5.00;4.33;;;;;25.53;54.34;98254.97;4922322;28;101828;-91
2021/07/29 05:50:30;;;;;;;;;3.67;3.67;;;;;25.52;53.90;98264.41;4900943;28;108672;-91
2021/07/29 05:53:01;;;;;;;;;4.00;4.00;;;;;25.52;53.92;98261.66;4906253;28;102776;-91
2021/07/29 05:55:29;;;;;;;;;3.33;3.33;;;;;25.50;53.99;98258.34;4928826;28;102634;-90
2021/07/29 05:57:59;;;;;;;;;3.33;2.67;;;;;25.50;54.07;98252.81;4907764;28;102197;-92
2021/07/29 06:00:27;;;;;;;;;4.67;4.67;;;;;25.50;54.17;98250.03;4908202;28;104192;-91
2021/07/29 06:02:55;;;;;;;;;3.67;2.67;;;;;25.48;53.83;98251.50;4921866;28;101730;-91
2021/07/29 06:05:22;;;;;;;;;3.33;3.33;;;;;25.49;53.87;98237.31;4906465;28;102155;-91
2021/07/29 06:07:49;;;;;;;;;4.00;3.33;;;;;25.50;53.91;98243.69;4907241;28;102133;-91
2021/07/29 06:10:16;;;;;;;;;3.67;3.67;;;;;25.50;53.80;98236.19;4924461;28;104796;-92
2021/07/29 06:12:43;;;;;;;;;2.67;2.67;;;;;25.51;54.18;98242.56;4899850;28;103261;-92
2021/07/29 06:15:11;;;;;;;;;7.00;5.00;;;;;25.49;54.18;98242.84;4905194;28;102388;-91
2021/07/29 06:17:39;;;;;;;;;4.00;4.00;;;;;25.47;54.00;98234.06;4916428;28;102139;-91
2021/07/29 06:20:07;;;;;;;;;3.00;2.00;;;;;25.47;54.29;98245.13;4909806;28;103587;-92
2021/07/29 06:22:34;;;;;;;;;4.00;4.00;;;;;25.47;54.28;98245.13;4921257;28;101940;-92
2021/07/29 06:25:06;;;;;;;;;4.00;4.00;;;;;25.44;54.19;98234.66;4915042;28;104394;-91
2021/07/29 06:27:34;;;;;;;;;5.33;4.33;;;;;25.46;54.62;98251.78;4903290;28;101914;-91
2021/07/29 06:30:01;;;;;;;;;4.00;3.33;;;;;25.46;54.52;98251.78;4907755;28;103456;-91
2021/07/29 06:32:28;;;;;;;;;3.67;3.67;;;;;25.47;54.14;98250.66;4913040;28;101761;-92
2021/07/29 06:34:56;;;;;;;;;4.00;3.33;;;;;25.47;53.92;98245.13;4885504;28;102430;-92
2021/07/29 06:37:23;;;;;;;;;4.33;3.67;;;;;25.48;53.96;98252.31;4891469;28;102027;-91
2021/07/29 06:39:50;;;;;;;;;3.00;3.00;;;;;25.48;53.86;98254.25;4895375;28;103600;-92
2021/07/29 06:42:17;;;;;;;;;4.33;3.67;;;;;25.46;53.75;98251.78;4882582;28;104255;-91
2021/07/29 06:44:44;;;;;;;;;5.00;4.67;;;;;25.45;53.62;98252.91;4903768;28;102163;-91
2021/07/29 06:47:15;;;;;;;;;5.00;4.67;;;;;25.47;53.77;98249.84;4886402;28;103584;-91
2021/07/29 06:49:42;;;;;;;;;3.33;3.33;;;;;25.48;53.61;98252.31;4880678;28;103397;-91
2021/07/29 06:52:13;;;;;;;;;3.67;3.00;;;;;25.48;53.60;98257.84;4894375;28;101785;-91
2021/07/29 06:54:40;;;;;;;;;3.67;3.67;;;;;25.48;53.60;98260.63;4894982;28;102218;-91
2021/07/29 06:57:08;;;;;;;;;2.33;2.33;;;;;25.48;53.66;98262.56;4891860;28;104191;-85
2021/07/29 06:59:35;;;;;;;;;3.00;3.00;;;;;25.48;53.90;98257.03;4903679;28;103770;-91
2021/07/29 07:02:03;;;;;;;;;3.33;3.33;;;;;25.47;53.53;98261.75;4887978;28;102210;-91
2021/07/29 07:04:30;;;;;;;;;4.00;4.00;;;;;25.48;53.53;98257.84;4884225;28;102529;-92
2021/07/29 07:06:58;;;;;;;;;1.00;1.00;;;;;25.49;53.60;98270.53;4911157;28;104374;-91
2021/07/29 07:09:25;;;;;;;;;4.00;4.00;;;;;25.49;53.64;98256.69;4898591;28;103591;-91
2021/07/29 07:11:52;;;;;;;;;1.67;1.67;;;;;25.50;53.47;98271.38;4890447;28;102314;-91
2021/07/29 07:14:19;;;;;;;;;4.33;4.00;;;;;25.50;53.55;98272.19;4895626;28;102696;-91
2021/07/29 07:16:46;;;;;;;;;3.33;3.00;;;;;25.50;53.68;98265.84;4896199;28;102225;-91
2021/07/29 07:19:13;;;;;;;;;3.00;3.00;;;;;25.50;53.58;98266.66;4892078;28;104876;-92
2021/07/29 07:21:41;;;;;;;;;2.67;2.67;;;;;25.52;53.46;98269.97;4908644;28;101808;-91
2021/07/29 07:24:08;;;;;;;;;3.00;3.00;;;;;25.53;53.41;98259.69;4894350;28;102199;-91
2021/07/29 07:26:35;;;;;;;;;3.00;2.00;;;;;25.55;53.43;98258.28;4891595;28;102045;-91
2021/07/29 07:29:03;;;;;;;;;3.33;3.00;;;;;25.56;53.54;98259.94;4899428;28;103454;-91
2021/07/29 07:31:30;;;;;;;;;3.00;3.00;;;;;25.56;53.28;98262.72;4880345;28;103078;-91
2021/07/29 07:33:58;;;;;;;;;3.00;3.00;;;;;25.58;53.25;98257.66;4902295;28;102206;-91
2021/07/29 07:36:26;;;;;;;;;3.00;2.33;;;;;25.59;53.36;98252.94;4926566;28;102158;-91
2021/07/29 07:38:53;;;;;;;;;2.67;2.67;;;;;25.59;53.21;98252.94;4904711;28;105160;-91
2021/07/29 07:41:20;;;;;;;;;3.67;3.00;;;;;25.60;53.17;98258.19;4902672;28;102150;-91
2021/07/29 07:43:48;;;;;;;;;3.00;3.00;;;;;25.61;53.08;98259.03;4919897;28;101887;-91
2021/07/29 07:46:15;;;;;;;;;4.00;3.00;;;;;25.61;53.24;98254.31;4899783;28;102457;-91
2021/07/29 07:48:43;;;;;;;;;2.00;2.00;;;;;25.62;53.08;98253.16;4922155;28;103499;-91
2021/07/29 07:51:12;;;;;;;;;2.33;2.33;;;;;25.63;53.28;98254.78;4913002;28;102361;-92
2021/07/29 07:53:40;;;;;;;;;5.00;4.00;;;;;25.64;53.27;98261.16;4908668;28;102146;-89
2021/07/29 07:56:07;;;;;;;;;1.67;1.67;;;;;25.63;53.23;98263.09;4922038;28;102135;-91
2021/07/29 07:58:34;;;;;;;;;3.67;3.33;;;;;25.63;53.30;98263.09;4911150;28;103430;-92
2021/07/29 08:01:04;;;;;;;;;4.67;4.00;;;;;25.64;53.25;98253.69;4906363;28;103059;-92
2021/07/29 08:03:31;;;;;;;;;3.00;3.00;;;;;25.65;53.31;98260.03;4902298;28;102317;-91
2021/07/29 08:06:03;;;;;;;;;3.00;3.00;;;;;25.64;53.26;98256.44;4917366;28;102023;-91
2021/07/29 08:08:30;;;;;;;;;3.00;3.00;;;;;25.66;53.43;98264.47;4901250;28;103220;-92
2021/07/29 08:10:57;;;;;;;;;3.33;2.33;;;;;25.65;53.51;98260.03;4925586;28;102038;-91
2021/07/29 08:13:24;;;;;;;;;5.33;4.00;;;;;25.65;53.49;98252.56;4913238;28;102071;-91
2021/07/29 08:15:51;;;;;;;;;3.33;3.00;;;;;25.65;53.45;98247.03;4908009;28;103366;-91
2021/07/29 08:18:19;;;;;;;;;3.33;3.33;;;;;25.65;53.50;98248.97;4917062;28;103437;-91
2021/07/29 08:20:46;;;;;;;;;3.00;3.00;;;;;25.66;53.54;98242.31;4896478;28;102171;-91
2021/07/29 08:23:13;;;;;;;;;2.33;2.00;;;;;25.65;53.48;98235.94;4901654;28;101674;-91
2021/07/29 08:25:40;;;;;;;;;2.67;2.67;;;;;25.65;53.27;98237.88;4915316;28;101685;-91
2021/07/29 08:28:07;;;;;;;;;3.00;2.33;;;;;25.66;53.64;98232.06;4905206;28;108785;-91
2021/07/29 08:30:34;;;;;;;;;3.00;3.00;;;;;25.67;53.45;98233.66;4898339;28;102679;-91
2021/07/29 08:33:09;;;;;;;;;4.00;3.00;;;;;25.68;53.51;98228.94;4912004;28;101959;-91
2021/07/29 08:35:37;;;;;;;;;3.00;3.00;;;;;25.68;53.54;98224.25;4895845;28;101853;-91
2021/07/29 08:38:04;;;;;;;;;3.00;3.00;;;;;25.69;53.48;98230.59;4913135;28;103540;-91
2021/07/29 08:40:32;;;;;;;;;1.67;1.67;;;;;25.68;53.37;98215.94;4922769;28;103194;-91
2021/07/29 08:43:00;;;;;;;;;3.00;2.33;;;;;25.69;53.46;98231.44;4900451;28;105634;-91
2021/07/29 08:45:27;;;;;;;;;4.00;4.00;;;;;25.70;53.50;98227.53;4900379;28;101777;-91
2021/07/29 08:47:57;;;;;;;;;2.67;2.67;;;;;25.71;53.54;98220.03;4883425;28;103466;-92
2021/07/29 08:50:24;;;;;;;;;2.00;2.00;;;;;25.71;53.41;98220.84;4891049;28;102265;-91
2021/07/29 08:52:51;;;;;;;;;2.33;2.33;;;;;25.71;53.50;98222.81;4912396;28;102083;-91
2021/07/29 08:55:19;;;;;;;;;2.33;2.33;;;;;25.71;53.57;98223.59;4905934;28;102308;-91
2021/07/29 08:57:46;;;;;;;;;1.67;1.00;;;;;25.73;53.63;98226.09;4883387;28;103699;-90
2021/07/29 09:00:16;;;;;;;;;3.33;2.33;;;;;25.73;53.48;98224.13;4918232;28;103560;-88
2021/07/29 09:02:43;;;;;;;;;1.67;1.67;;;;;25.73;53.54;98237.97;4904313;28;102312;-89
2021/07/29 09:05:18;;;;;;;;;3.33;3.00;;;;;25.74;53.49;98227.72;4912035;28;102826;-91
2021/07/29 09:08:04;;;;;;;;;2.67;2.67;;;;;25.74;53.60;98239.63;4902308;28;108614;-91
2021/07/29 09:10:31;;;;;;;;;3.00;3.00;;;;;25.76;53.55;98231.81;4896760;28;103012;-91
2021/07/29 09:13:12;;;;;;;;;2.33;2.33;;;;;25.78;53.60;98228.75;4905711;28;104399;-91
2021/07/29 09:15:43;;;;;;;;;2.00;2.00;;;;;25.77;53.44;98227.09;4893233;28;103066;-91
2021/07/29 09:18:16;;;;;;;;;2.00;2.00;;;;;25.79;53.42;98229.56;4910640;28;108350;-91
2021/07/29 09:20:43;;;;;;;;;2.00;2.00;;;;;25.80;53.52;98242.31;4889013;28;102121;-91
2021/07/29 09:23:16;;;;;;;;;2.67;2.33;;;;;25.80;53.30;98243.13;4920057;28;102181;-91
2021/07/29 09:25:45;;;;;;;;;2.67;2.67;;;;;25.81;53.59;98244.75;4917051;28;104157;-86
2021/07/29 09:28:30;;;;;;;;;4.00;2.00;;;;;25.81;53.42;98230.06;4910145;28;103443;-92
2021/07/29 09:30:57;;;;;;;;;4.00;2.33;;;;;25.82;53.45;98228.94;4825119;28;101854;-91
2021/07/29 09:33:24;;;;;;;;;2.67;2.67;;;;;25.81;53.51;98222.59;4915220;28;102980;-92
2021/07/29 09:35:53;;;;;;;;;3.00;2.00;;;;;25.83;53.51;98234.19;4885803;28;102346;-91
2021/07/29 09:38:23;;;;;;;;;2.67;2.67;;;;;25.83;53.62;98239.72;4916656;28;103457;-91
2021/07/29 09:41:01;;;;;;;;;4.00;4.00;;;;;25.85;53.40;98228.34;4913982;28;102011;-91
2021/07/29 09:43:30;;;;;;;;;3.00;2.33;;;;;25.84;53.53;98238.59;4908926;28;102199;-91
2021/07/29 09:46:01;;;;;;;;;2.00;2.00;;;;;25.83;53.51;98230.59;4916426;28;102757;-91
2021/07/29 09:48:29;;;;;;;;;5.00;3.00;;;;;25.86;53.46;98229.97;4914794;28;109584;-91
2021/07/29 09:51:00;;;;;;;;;1.00;1.00;;;;;25.87;53.38;98232.44;4889860;28;101748;-91
2021/07/29 09:53:32;;;;;;;;;2.33;2.00;;;;;25.88;53.44;98227.72;4914244;28;102314;-92
2021/07/29 09:56:00;;;;;;;;;2.00;1.33;;;;;25.88;53.41;98234.09;4910795;28;101727;-82
2021/07/29 09:58:28;;;;;;;;;2.67;2.00;;;;;25.89;53.38;98224.66;4904469;28;103646;-82
2021/07/29 10:00:55;;;;;;;;;2.00;2.00;;;;;25.88;53.53;98228.53;4887961;28;101866;-82
2021/07/29 10:03:22;;;;;;;;;2.00;2.00;;;;;25.91;53.37;98227.09;4921363;28;102166;-82
2021/07/29 10:05:52;;;;;;;;;2.00;1.67;;;;;25.89;53.41;98227.41;4904324;28;101820;-82
2021/07/29 10:08:34;;;;;;;;;2.00;2.00;;;;;25.91;53.46;98224.31;4905173;28;103353;-82
2021/07/29 10:11:03;;;;;;;;;1.67;1.67;;;;;25.91;53.43;98216.00;4909568;28;103209;-82
2021/07/29 10:13:34;;;;;;;;;2.33;2.33;;;;;25.92;53.50;98212.94;4881320;28;102592;-82
2021/07/29 10:16:02;;;;;;;;;1.00;1.00;;;;;25.93;53.50;98220.13;4912446;28;102257;-82
2021/07/29 10:18:49;;;;;;;;;2.00;2.00;;;;;25.94;53.41;98215.38;4908447;28;104116;-82
2021/07/29 10:21:24;;;;;;;;;1.67;1.33;;;;;25.93;53.44;98209.03;4892662;28;102154;-83
2021/07/29 10:23:58;;;;;;;;;2.33;2.33;;;;;25.93;53.55;98203.50;4896689;28;102040;-82
2021/07/29 10:26:32;;;;;;;;;2.00;2.00;;;;;25.92;53.63;98204.63;4917475;28;103563;-82
2021/07/29 10:29:26;;;;;;;;;2.33;2.33;;;;;25.95;53.44;98204.00;4901766;28;104210;-82
2021/07/29 10:31:55;;;;;;;;;3.00;2.00;;;;;25.97;53.36;98209.25;4846195;28;102022;-82
2021/07/29 10:34:28;;;;;;;;;3.00;2.00;;;;;25.97;53.42;98195.38;4925855;28;101969;-82
2021/07/29 10:36:59;;;;;;;;;1.00;1.00;;;;;25.98;53.45;98200.59;4919957;28;103117;-82
2021/07/29 10:39:26;;;;;;;;;3.00;3.00;;;;;25.98;53.44;98195.06;4894626;28;103391;-82
2021/07/29 10:41:57;;;;;;;;;1.00;1.00;;;;;25.99;53.36;98195.88;4926321;28;102288;-82
2021/07/29 10:44:36;;;;;;;;;2.00;2.00;;;;;25.99;53.45;98193.94;4907699;28;102243;-82
2021/07/29 10:47:05;;;;;;;;;2.33;2.33;;;;;26.01;53.24;98193.63;4908732;28;102167;-82
2021/07/29 10:49:45;;;;;;;;;2.00;2.00;;;;;26.01;53.42;98190.84;4913720;28;103742;-82
2021/07/29 10:52:12;;;;;;;;;2.00;2.00;;;;;26.02;53.28;98192.50;4928635;28;102317;-82
2021/07/29 10:54:41;;;;;;;;;1.00;1.00;;;;;26.02;53.41;98196.09;4911946;28;102722;-92
2021/07/29 10:57:09;;;;;;;;;3.00;2.00;;;;;26.04;53.30;98190.22;4924172;28;101954;-91
2021/07/29 10:59:37;;;;;;;;;3.00;2.00;;;;;26.04;53.31;98195.75;4911244;28;104746;-92
2021/07/29 11:02:22;;;;;;;;;1.00;1.00;;;;;26.05;53.32;98194.63;4908458;28;102103;-92
2021/07/29 11:04:53;;;;;;;;;2.00;1.33;;;;;26.05;53.36;98194.63;4911255;28;102147;-91
2021/07/29 11:07:20;;;;;;;;;1.00;1.00;;;;;26.05;53.28;98187.16;4924114;28;102476;-92
2021/07/29 11:10:02;;;;;;;;;3.00;2.00;;;;;26.06;53.19;98191.56;4892814;28;103389;-91
2021/07/29 11:12:30;;;;;;;;;2.33;2.33;;;;;26.07;53.27;98184.06;4916793;28;102319;-92
2021/07/29 11:14:58;;;;;;;;;3.67;3.00;;;;;26.07;53.23;98178.53;4921001;28;102114;-91
2021/07/29 11:17:25;;;;;;;;;1.33;1.33;;;;;26.08;53.07;98182.94;4911169;28;103260;-92
2021/07/29 11:19:53;;;;;;;;;2.33;2.00;;;;;26.09;53.23;98176.25;4892024;28;103422;-92
2021/07/29 11:22:20;;;;;;;;;2.00;2.00;;;;;26.10;53.33;98191.75;4917129;28;101788;-91
2021/07/29 11:24:47;;;;;;;;;2.67;2.00;;;;;26.09;53.30;98190.94;4905783;28;102196;-91
2021/07/29 11:27:14;;;;;;;;;1.00;1.00;;;;;26.11;53.24;98182.31;4919066;28;101839;-91
2021/07/29 11:29:54;;;;;;;;;1.33;1.33;;;;;26.11;53.18;98176.78;4893891;28;103376;-91
2021/07/29 11:32:21;;;;;;;;;3.00;3.00;;;;;26.11;53.19;98168.47;4891447;28;103359;-91
2021/07/29 11:34:56;;;;;;;;;2.00;1.00;;;;;26.12;53.32;98179.22;4922515;28;101898;-92